• Join FlightAware (Why Join?)
  • Login
  • US Flag 
12:03PM EDT


 

Airport Tracker/Info


-or-


 

Live Flight TrackerFlight Track Log ✈ SWA440 ✈ 14-Apr-2013 ✈ KMDW - KCLE

Flight Track Log - Related Links

Times and Time Zones

All times are in EDT time to prevent confusion due to time zone crossing. See the SWA440 flight status page for this flight to view local times or setup timezone preferences in your user account.

Time Position Orientation Groundspeed Altitude Reporting Facility
EDT Latitude Longitude Course Direction KTS MPH feet Rate Location/Type
09:12AM 41.8000 -87.7333 90° East 154 177 2,000  Level Chicago TRACON
09:13AM 41.8000 -87.6667 90° East 198 228 4,300 1,740 Climbing Chicago TRACON
09:14AM 41.8117 -87.6069 75° East 224 258 5,000 360 Climbing Chicago Center
09:15AM 41.8206 -87.5017 84° East 261 300 5,000 1,440 Level Chicago Center
09:16AM 41.8281 -87.3900 85° East 288 331 8,000 3,420 Climbing Chicago Center
09:17AM 41.8014 -87.2717 107° East 324 373 12,100 3,900 Climbing Chicago Center
09:18AM 41.7781 -87.1389 103° East 361 415 16,000 4,320 Climbing Chicago Center
09:19AM 41.7611 -86.9650 97° East 398 458 21,000 4,140 Climbing Chicago Center
09:20AM 41.7647 -86.8125 88° East 410 472 24,600 3,120 Climbing Chicago Center
09:21AM 41.7658 -86.6642 89° East 429 494 27,500 3,240 Climbing Chicago Center
09:22AM 41.7661 -86.5042 90° East 431 496 31,200 2,640 Climbing Chicago Center
09:23AM 41.7683 -86.3494 89° East 419 482 33,000 840 Climbing Chicago Center
09:24AM 41.7858 -86.1600 83° East 426 490 33,000 420 Level Chicago Center
09:25AM 41.8039 -85.9956 82° East 443 510 33,900 960 Climbing Chicago Center
09:26AM 41.8222 -85.8200 82° East 472 543 35,000 480 Climbing Chicago Center
09:27AM 41.8408 -85.6450 82° East 471 542 35,000  Level Chicago Center
09:28AM 41.8589 -85.4714 82° East 466 536 35,000  Level Chicago Center
09:29AM 41.8753 -85.3553 79° East 472 543 35,000  Level Cleveland Center
09:30AM 41.8906 -85.1833 83° East 466 536 35,000  Level Cleveland Center
09:31AM 41.9056 -85.0142 83° East 460 529 35,000  Level Cleveland Center
09:32AM 41.9247 -84.8397 82° East 460 529 35,000  Level Cleveland Center
09:33AM 41.9414 -84.6703 82° East 465 535 35,000 -240 Level Cleveland Center
09:34AM 41.9581 -84.4928 83° East 465 535 34,600 -720 Descending Cleveland Center
09:35AM 41.9722 -84.3175 84° East 465 535 33,600 -1,500 Descending Cleveland Center
09:36AM 41.9886 -84.1256 83° East 460 529 31,700 -1,320 Descending Cleveland Center
09:37AM 42.0022 -83.9475 84° East 465 535 31,000 -360 Descending Cleveland Center
09:38AM 42.0178 -83.7694 83° East 470 541 31,000 -600 Level Cleveland Center
09:39AM 42.0331 -83.5914 83° East 476 548 29,900 -1,800 Descending Cleveland Center
09:40AM 42.0417 -83.4211 86° East 466 536 27,500 -2,400 Descending Cleveland Center
09:41AM 42.0247 -83.2497 98° East 458 527 25,100 -2,400 Descending Cleveland Center
09:42AM 42.0153 -83.1208 96° East 443 510 23,200 -2,040 Descending Cleveland Center
09:42AM 42.0050 -83.0228 98° East 435 501 22,300 -1,620 Descending Cleveland Center
09:43AM 41.9961 -82.9414 98° East 439 505 21,300 -2,040 Descending Cleveland Center
09:43AM 41.9911 -82.8769 96° East 428 493 20,400 -2,640 Descending Cleveland Center
09:44AM 41.9881 -82.8292 95° East 423 487 19,700 -1,860 Descending Cleveland Center
09:44AM 41.9806 -82.7869 103° East 429 494 19,200 -2,220 Descending Cleveland Center
09:44AM 41.9719 -82.6861 97° East 415 478 17,700 -2,100 Descending Cleveland Center
09:45AM 41.9667 -82.6358 98° East 417 480 17,100 -1,980 Descending Cleveland Center
09:46AM 41.9378 -82.4897 105° East 406 467 14,800 -2,460 Descending Cleveland Center
09:46AM 41.9181 -82.4278 113° Southeast 407 468 13,700 -2,400 Descending Cleveland Center
09:47AM 41.8964 -82.3517 111° Southeast 400 460 12,400 -2,400 Descending Cleveland Center
09:47AM 41.8742 -82.2897 116° Southeast 395 455 11,300 -2,220 Descending Cleveland Center
09:48AM 41.8525 -82.2194 112° Southeast 394 453 10,200 -1,320 Descending Cleveland Center
09:48AM 41.8283 -82.1547 117° Southeast 366 421 10,000 -300 Descending Cleveland Center
09:49AM 41.8139 -82.1322 131° Southeast 355 409 10,000  Level Cleveland Center
09:49AM 41.7956 -82.1122 141° Southeast 373 429 10,000 120 Level Cleveland Center
09:49AM 41.7564 -82.0750 145° Southeast 339 390 10,100  Climbing Cleveland Center
09:50AM 41.7381 -82.0497 134° Southeast 336 387 10,000 -360 Descending Cleveland Center
09:50AM 41.7214 -82.0353 147° Southeast 346 398 9,900 -1,200 Descending Cleveland Center
09:50AM 41.6822 -81.9956 143° Southeast 329 379 9,100 -1,380 Descending Cleveland Center
09:51AM 41.6681 -81.9731 130° Southeast 328 377 8,800 -1,320 Descending Cleveland Center
09:51AM 41.6144 -81.9192 143° Southeast 314 361 7,800 -1,440 Descending Cleveland Center
09:52AM 41.5836 -81.8850 140° Southeast 323 372 7,100 -840 Descending Cleveland Center
09:52AM 41.5486 -81.8483 142° Southeast 293 337 7,000 -120 Descending Cleveland Center
09:53AM 41.5344 -81.8119 117° Southeast 282 325 7,000 -420 Level Cleveland Center
09:53AM 41.5556 -81.7708 56° Northeast 224 258 6,600 -900 Descending Cleveland Center
09:54AM 41.5661 -81.7572 44° Northeast 229 264 6,300 -1,140 Descending Cleveland Center
09:54AM 41.5522 -81.7014 108° East 220 253 5,500 -1,200 Descending Cleveland Center
09:55AM 41.5019 -81.7114 188° South 174 200 4,200 -1,320 Descending Cleveland Center
09:56AM 41.4725 -81.7608 232° Southwest 173 199 2,900 -1,200 Descending Cleveland Center
09:57AM 41.4447 -81.8019 228° Southwest 129 148 1,800 -900 Descending Cleveland Center
09:58AM 41.4217 -81.8347 227° Southwest 115 132 1,100 -720 Descending Cleveland Center